createdAt,value
2023-02-14T00:00:51.651Z,3.64
2023-02-14T00:03:18.936Z,3.51
2023-02-14T00:05:46.427Z,3.44
2023-02-14T00:08:14.166Z,3.37
2023-02-14T00:10:41.138Z,3.36
2023-02-14T00:13:08.117Z,3.31
2023-02-14T00:15:35.506Z,3.31
2023-02-14T00:18:03.619Z,3.36
2023-02-14T00:20:30.549Z,3.55
2023-02-14T00:22:57.527Z,3.51
2023-02-14T00:25:24.934Z,3.59
2023-02-14T00:27:51.836Z,3.62
2023-02-14T00:30:19.017Z,3.62
2023-02-14T00:32:46.197Z,3.62
2023-02-14T00:35:13.446Z,3.64
2023-02-14T00:37:41.388Z,3.65
2023-02-14T00:40:09.235Z,3.60
2023-02-14T00:42:36.307Z,3.58
2023-02-14T00:45:03.176Z,3.55
2023-02-14T00:47:30.584Z,3.61
2023-02-14T00:50:03.109Z,3.65
2023-02-14T00:52:31.219Z,3.59
2023-02-14T00:54:58.563Z,3.51
2023-02-14T00:57:25.667Z,3.43
2023-02-14T00:59:52.638Z,3.31
2023-02-14T01:02:20.943Z,3.29
2023-02-14T01:04:47.997Z,3.29
2023-02-14T01:07:15.367Z,3.30
2023-02-14T01:09:42.627Z,3.30
2023-02-14T01:12:09.757Z,3.28
2023-02-14T01:14:36.625Z,3.18
2023-02-14T01:17:03.701Z,3.20
2023-02-14T01:19:31.090Z,3.21
2023-02-14T01:21:58.053Z,3.07
2023-02-14T01:24:26.483Z,2.99
2023-02-14T01:26:53.416Z,2.90
2023-02-14T01:29:20.546Z,2.95
2023-02-14T01:31:49.424Z,2.96
2023-02-14T01:34:17.544Z,3.03
2023-02-14T01:36:46.885Z,3.04
2023-02-14T01:39:15.520Z,2.95
2023-02-14T01:41:48.837Z,2.95
2023-02-14T01:44:17.077Z,2.95
2023-02-14T01:46:45.468Z,2.90
2023-02-14T01:49:18.881Z,2.93
2023-02-14T01:52:03.968Z,2.93
2023-02-14T01:54:32.531Z,2.97
2023-02-14T01:57:03.612Z,2.97
2023-02-14T01:59:35.041Z,2.94
2023-02-14T02:02:02.491Z,2.92
2023-02-14T02:04:36.373Z,2.94
2023-02-14T02:07:06.167Z,2.97
2023-02-14T02:09:36.785Z,3.00
2023-02-14T02:12:04.503Z,2.99
2023-02-14T02:14:32.416Z,2.90
2023-02-14T02:17:08.431Z,2.90
2023-02-14T02:19:57.371Z,2.89
2023-02-14T02:22:56.654Z,2.89
2023-02-14T02:25:34.032Z,2.93
2023-02-14T02:28:04.085Z,2.86
2023-02-14T02:30:50.908Z,2.85
2023-02-14T02:33:55.612Z,2.80
2023-02-14T02:36:28.744Z,2.74
2023-02-14T02:38:55.642Z,2.70
2023-02-14T02:41:44.132Z,2.67
2023-02-14T02:44:32.113Z,2.65
2023-02-14T02:47:20.100Z,2.64
2023-02-14T02:50:38.001Z,2.62
2023-02-14T02:53:33.694Z,2.61
2023-02-14T02:56:31.676Z,2.61
2023-02-14T02:59:37.404Z,2.52
2023-02-14T03:02:04.471Z,2.41
2023-02-14T03:04:52.022Z,2.29
2023-02-14T03:07:35.248Z,2.23
2023-02-14T03:10:13.061Z,2.21
2023-02-14T03:13:18.062Z,2.12
2023-02-14T03:16:03.297Z,2.13
2023-02-14T03:18:52.111Z,2.12
2023-02-14T03:21:27.031Z,2.04
2023-02-14T03:23:58.225Z,2.15
2023-02-14T03:26:35.671Z,2.04
2023-02-14T03:29:30.235Z,2.10
2023-02-14T03:32:12.035Z,2.12
2023-02-14T03:34:46.496Z,2.26
2023-02-14T03:37:28.813Z,2.39
2023-02-14T03:40:14.091Z,2.34
2023-02-14T03:42:50.706Z,2.28
2023-02-14T03:45:24.013Z,2.33
2023-02-14T03:47:52.113Z,2.25
2023-02-14T03:50:20.333Z,2.29
2023-02-14T03:52:50.294Z,2.25
2023-02-14T03:55:21.774Z,2.35
2023-02-14T03:57:55.965Z,2.26
2023-02-14T04:00:23.042Z,2.22
2023-02-14T04:03:02.544Z,2.26
2023-02-14T04:05:29.550Z,2.25
2023-02-14T04:07:57.747Z,2.20
2023-02-14T04:10:25.652Z,2.09
2023-02-14T04:12:53.345Z,2.02
2023-02-14T04:15:20.530Z,2.03
2023-02-14T04:18:06.405Z,2.04
2023-02-14T04:20:34.440Z,1.96
2023-02-14T04:23:03.330Z,2.04
2023-02-14T04:25:30.942Z,2.01
2023-02-14T04:27:57.841Z,2.15
2023-02-14T04:30:25.125Z,2.17
2023-02-14T04:32:52.218Z,2.25
2023-02-14T04:35:19.555Z,2.21
2023-02-14T04:37:46.615Z,2.25
2023-02-14T04:40:17.349Z,2.26
2023-02-14T04:42:45.439Z,2.40
2023-02-14T04:45:12.795Z,2.48
2023-02-14T04:47:40.418Z,2.42
2023-02-14T04:50:08.082Z,2.33
2023-02-14T04:52:35.033Z,2.22
2023-02-14T04:55:02.377Z,2.12
2023-02-14T04:57:29.541Z,2.12
2023-02-14T04:59:56.809Z,2.15
2023-02-14T05:02:24.269Z,2.14
2023-02-14T05:04:51.912Z,2.08
2023-02-14T05:07:19.438Z,1.92
2023-02-14T05:09:46.387Z,1.75
2023-02-14T05:12:13.780Z,1.71
2023-02-14T05:14:40.597Z,1.71
2023-02-14T05:17:07.763Z,1.69
2023-02-14T05:19:34.728Z,1.69
2023-02-14T05:22:01.650Z,1.72
2023-02-14T05:24:29.129Z,1.80
2023-02-14T05:26:55.936Z,1.79
2023-02-14T05:29:23.345Z,1.70
2023-02-14T05:31:50.663Z,1.65
2023-02-14T05:34:19.085Z,1.63
2023-02-14T05:36:46.318Z,1.61
2023-02-14T05:39:14.835Z,1.61
2023-02-14T05:41:42.217Z,1.75
2023-02-14T05:44:09.184Z,1.83
2023-02-14T05:46:36.228Z,1.81
2023-02-14T05:49:04.117Z,1.76
2023-02-14T05:51:31.788Z,1.69
2023-02-14T05:54:02.808Z,1.63
2023-02-14T05:56:30.050Z,1.63
2023-02-14T05:58:57.301Z,1.62
2023-02-14T06:01:24.645Z,1.73
2023-02-14T06:03:51.489Z,1.73
2023-02-14T06:06:19.032Z,1.84
2023-02-14T06:08:46.380Z,1.94
2023-02-14T06:11:13.864Z,1.98
2023-02-14T06:13:41.757Z,2.02
2023-02-14T06:16:08.759Z,2.42
2023-02-14T06:18:36.134Z,2.41
2023-02-14T06:21:03.531Z,2.24
2023-02-14T06:23:30.895Z,2.28
2023-02-14T06:25:58.056Z,2.15
2023-02-14T06:28:25.352Z,1.99
2023-02-14T06:30:52.626Z,2.47
2023-02-14T06:33:20.411Z,2.81
2023-02-14T06:35:47.348Z,2.76
2023-02-14T06:38:14.544Z,2.26
2023-02-14T06:40:41.591Z,2.43
2023-02-14T06:43:08.318Z,2.73
2023-02-14T06:45:35.036Z,2.80
2023-02-14T06:48:01.912Z,2.90
2023-02-14T06:50:28.770Z,3.04
2023-02-14T06:52:55.502Z,3.08
2023-02-14T06:55:22.294Z,3.09
2023-02-14T06:57:49.734Z,2.99
2023-02-14T07:00:17.554Z,2.97
2023-02-14T07:02:44.467Z,3.15
2023-02-14T07:05:11.193Z,3.26
2023-02-14T07:07:38.014Z,3.29
2023-02-14T07:10:05.297Z,3.31
2023-02-14T07:12:32.191Z,3.10
2023-02-14T07:14:58.840Z,2.85
2023-02-14T07:17:26.116Z,2.94
2023-02-14T07:19:52.854Z,2.87
2023-02-14T07:22:19.704Z,2.91
2023-02-14T07:24:47.051Z,2.86
2023-02-14T07:27:13.806Z,2.73
2023-02-14T07:29:40.618Z,2.64
2023-02-14T07:32:07.820Z,2.74
2023-02-14T07:34:35.568Z,2.76
2023-02-14T07:37:03.054Z,2.76
2023-02-14T07:39:30.418Z,2.85
2023-02-14T07:41:57.551Z,2.63
2023-02-14T07:44:26.820Z,2.41
2023-02-14T07:46:53.756Z,2.49
2023-02-14T07:49:20.862Z,2.41
2023-02-14T07:51:48.462Z,2.43
2023-02-14T07:54:16.102Z,2.67
2023-02-14T07:56:42.862Z,2.84
2023-02-14T07:59:10.187Z,2.92
2023-02-14T08:01:37.507Z,3.23
2023-02-14T08:04:04.774Z,3.45
2023-02-14T08:06:32.061Z,4.09
2023-02-14T08:08:58.869Z,4.00
2023-02-14T08:11:44.116Z,4.21
2023-02-14T08:14:10.811Z,3.92
2023-02-14T08:16:38.388Z,3.81
2023-02-14T08:19:05.150Z,3.77
2023-02-14T08:21:32.467Z,3.69
2023-02-14T08:23:59.375Z,3.84
2023-02-14T08:26:27.028Z,3.77
2023-02-14T08:28:54.497Z,3.82
2023-02-14T08:31:35.258Z,3.88
2023-02-14T08:34:04.724Z,3.98
2023-02-14T08:36:31.806Z,4.19
2023-02-14T08:38:58.601Z,4.29
2023-02-14T08:41:25.749Z,4.38
2023-02-14T08:43:52.523Z,4.44
2023-02-14T08:46:19.806Z,4.48
2023-02-14T08:48:46.661Z,4.58
2023-02-14T08:51:15.298Z,4.46
2023-02-14T08:53:43.431Z,4.69
2023-02-14T08:56:13.049Z,4.91
2023-02-14T08:58:40.780Z,4.86
2023-02-14T09:01:17.056Z,4.77
2023-02-14T09:03:45.092Z,5.09
2023-02-14T09:06:17.786Z,5.26
2023-02-14T09:08:45.505Z,5.49
2023-02-14T09:11:15.761Z,5.70
2023-02-14T09:13:43.744Z,5.82
2023-02-14T09:16:12.587Z,5.89
2023-02-14T09:18:40.194Z,5.85
2023-02-14T09:21:09.418Z,5.48
2023-02-14T09:23:36.779Z,5.26
2023-02-14T09:26:05.916Z,5.33
2023-02-14T09:28:33.065Z,5.40
2023-02-14T09:31:16.000Z,5.68
2023-02-14T09:34:02.108Z,5.95
2023-02-14T09:36:48.133Z,6.21
2023-02-14T09:39:15.586Z,6.59
2023-02-14T09:42:15.377Z,6.79
2023-02-14T09:44:45.268Z,7.11
2023-02-14T09:47:40.053Z,7.46
2023-02-14T09:50:15.026Z,7.71
2023-02-14T09:52:42.370Z,7.71
2023-02-14T09:55:15.917Z,7.37
2023-02-14T09:57:59.570Z,7.60
2023-02-14T10:00:34.434Z,7.77
2023-02-14T10:03:34.643Z,7.88
2023-02-14T10:06:35.498Z,7.86
2023-02-14T10:09:28.689Z,8.07
2023-02-14T10:11:58.937Z,8.12
2023-02-14T10:14:30.012Z,8.23
2023-02-14T10:17:02.372Z,8.38
2023-02-14T10:19:33.649Z,8.48
2023-02-14T10:22:11.414Z,8.70
2023-02-14T10:24:51.194Z,9.02
2023-02-14T10:27:42.443Z,9.62
2023-02-14T10:30:19.241Z,10.08
2023-02-14T10:32:57.153Z,10.08
2023-02-14T10:35:46.175Z,10.24
2023-02-14T10:38:41.885Z,10.65
2023-02-14T10:41:17.934Z,10.95
2023-02-14T10:44:23.736Z,10.74
2023-02-14T10:47:06.269Z,11.13
2023-02-14T10:49:45.558Z,11.52
2023-02-14T10:52:26.138Z,11.65
2023-02-14T10:54:58.948Z,11.77
2023-02-14T10:57:30.650Z,11.53
2023-02-14T11:00:01.270Z,11.94
2023-02-14T11:02:35.388Z,11.68
2023-02-14T11:05:04.509Z,11.69
2023-02-14T11:07:31.854Z,12.11
2023-02-14T11:09:59.380Z,12.22
2023-02-14T11:12:35.292Z,12.33
2023-02-14T11:15:21.200Z,12.16
2023-02-14T11:17:48.850Z,12.39
2023-02-14T11:20:30.647Z,12.37
2023-02-14T11:22:57.865Z,12.38
2023-02-14T11:25:27.479Z,12.51
2023-02-14T11:28:03.471Z,12.37
2023-02-14T11:30:36.137Z,12.57
2023-02-14T11:33:04.608Z,12.37
2023-02-14T11:35:35.637Z,12.64
2023-02-14T11:38:07.086Z,12.59
2023-02-14T11:40:39.619Z,12.38
2023-02-14T11:43:15.495Z,12.48
2023-02-14T11:45:44.700Z,12.46
2023-02-14T11:48:36.537Z,12.59
2023-02-14T11:51:10.696Z,12.39
2023-02-14T11:53:45.957Z,12.53
2023-02-14T11:56:14.835Z,12.51
2023-02-14T11:58:45.630Z,12.52
2023-02-14T12:01:21.361Z,12.41
2023-02-14T12:03:49.794Z,12.52
2023-02-14T12:06:27.155Z,12.59
2023-02-14T12:09:23.867Z,12.40
2023-02-14T12:12:03.284Z,12.34
2023-02-14T12:14:35.825Z,12.55
2023-02-14T12:17:12.061Z,12.25
2023-02-14T12:19:47.120Z,12.07
2023-02-14T12:22:19.852Z,12.34
2023-02-14T12:25:00.546Z,12.41
2023-02-14T12:27:34.717Z,12.44
2023-02-14T12:30:24.450Z,12.71
2023-02-14T12:32:54.019Z,12.88
2023-02-14T12:35:46.010Z,12.80
2023-02-14T12:38:15.339Z,12.68
2023-02-14T12:40:57.856Z,12.97
2023-02-14T12:43:50.990Z,13.13
2023-02-14T12:46:39.867Z,13.31
2023-02-14T12:49:28.456Z,13.62
2023-02-14T12:52:11.167Z,13.64
2023-02-14T12:55:00.522Z,13.92
2023-02-14T12:57:32.532Z,13.33
2023-02-14T13:00:37.409Z,13.48
2023-02-14T13:49:18.181Z,12.92
2023-02-14T13:52:02.040Z,12.33
2023-02-14T13:54:43.230Z,12.01
2023-02-14T13:57:31.778Z,11.97
2023-02-14T14:00:17.640Z,11.81
2023-02-14T14:02:51.049Z,11.69
2023-02-14T14:05:30.287Z,11.57
2023-02-14T14:08:18.703Z,11.44
2023-02-14T14:10:50.744Z,11.32
2023-02-14T14:13:42.361Z,11.37
2023-02-14T14:16:19.170Z,11.38
2023-02-14T14:18:46.440Z,11.36
2023-02-14T14:21:34.167Z,11.29
2023-02-14T14:24:23.548Z,11.28
2023-02-14T14:27:05.494Z,11.20
2023-02-14T14:29:48.682Z,11.17
2023-02-14T14:32:21.654Z,11.16
2023-02-14T14:34:50.900Z,11.14
2023-02-14T14:37:19.688Z,11.14
2023-02-14T14:39:55.055Z,11.11
2023-02-14T14:42:24.027Z,11.09
2023-02-14T14:44:54.306Z,11.07
2023-02-14T14:47:24.494Z,11.03
2023-02-14T14:49:53.399Z,10.98
2023-02-14T14:52:33.336Z,10.95
2023-02-14T14:55:00.971Z,10.92
2023-02-14T14:57:28.077Z,10.87
2023-02-14T15:00:17.990Z,10.85
2023-02-14T15:02:59.899Z,10.85
2023-02-14T15:05:36.823Z,10.82
2023-02-14T15:08:36.679Z,10.79
2023-02-14T15:11:10.436Z,10.72
2023-02-14T15:13:49.560Z,10.66
2023-02-14T15:16:25.201Z,10.70
2023-02-14T15:18:56.868Z,10.75
2023-02-14T15:21:23.873Z,10.70
2023-02-14T15:23:52.470Z,10.70
2023-02-14T15:26:34.482Z,10.58
2023-02-14T15:29:06.619Z,10.52
2023-02-14T15:31:39.933Z,10.40
2023-02-14T15:34:07.379Z,10.36
2023-02-14T15:36:35.030Z,10.29
2023-02-14T15:39:06.249Z,10.23
2023-02-14T15:41:33.097Z,10.15
2023-02-14T15:44:04.683Z,10.14
2023-02-14T15:46:41.654Z,10.21
2023-02-14T15:49:10.768Z,10.10
2023-02-14T15:51:38.284Z,9.90
2023-02-14T15:54:25.988Z,9.89
2023-02-14T15:56:53.568Z,9.89
2023-02-14T15:59:23.573Z,9.92
2023-02-14T16:02:29.303Z,9.76
2023-02-14T16:05:03.949Z,9.68
2023-02-14T16:07:30.762Z,9.62
2023-02-14T16:10:23.954Z,9.81
2023-02-14T16:13:00.029Z,9.68
2023-02-14T16:15:33.192Z,9.58
2023-02-14T16:18:01.328Z,9.45
2023-02-14T16:20:30.824Z,9.41
2023-02-14T16:23:24.125Z,9.43
2023-02-14T16:25:51.390Z,9.20
2023-02-14T16:28:19.192Z,8.95
2023-02-14T16:30:48.698Z,8.68
2023-02-14T16:33:21.174Z,8.54
2023-02-14T16:35:48.285Z,8.51
2023-02-14T16:38:17.898Z,8.42
2023-02-14T16:41:23.634Z,8.24
2023-02-14T16:43:51.267Z,8.22
2023-02-14T16:46:21.714Z,8.00
2023-02-14T16:49:01.601Z,7.81
2023-02-14T16:51:34.893Z,7.66
2023-02-14T16:54:07.320Z,7.89
2023-02-14T16:57:00.332Z,7.79
2023-02-14T16:59:27.421Z,7.65
2023-02-14T17:01:54.955Z,7.47
2023-02-14T17:04:21.603Z,7.31
2023-02-14T17:06:53.724Z,7.21
2023-02-14T17:09:27.389Z,7.03
2023-02-14T17:11:57.775Z,7.03
2023-02-14T17:14:29.955Z,7.15
2023-02-14T17:16:58.270Z,7.13
2023-02-14T17:19:25.431Z,7.11
2023-02-14T17:21:52.158Z,6.93
2023-02-14T17:24:18.969Z,6.89
2023-02-14T17:26:45.672Z,6.68
2023-02-14T17:29:13.602Z,6.55
2023-02-14T17:31:40.453Z,6.32
2023-02-14T17:34:07.430Z,6.16
2023-02-14T17:36:34.566Z,6.10
2023-02-14T17:39:03.643Z,5.89
2023-02-14T17:41:31.136Z,5.86
2023-02-14T17:44:00.403Z,6.10
2023-02-14T17:46:28.836Z,6.17
2023-02-14T17:48:56.213Z,6.04
2023-02-14T17:51:24.039Z,5.82
2023-02-14T17:53:51.055Z,5.85
2023-02-14T17:56:20.411Z,5.74
2023-02-14T17:58:48.718Z,5.62
2023-02-14T18:01:16.547Z,5.41
2023-02-14T18:03:43.617Z,5.33
2023-02-14T18:06:11.422Z,5.40
2023-02-14T18:08:46.388Z,5.87
2023-02-14T18:11:14.062Z,5.84
2023-02-14T18:13:40.781Z,5.72
2023-02-14T18:16:10.713Z,5.62
2023-02-14T18:18:38.063Z,5.58
2023-02-14T18:21:07.411Z,5.33
2023-02-14T18:23:34.207Z,5.13
2023-02-14T18:26:05.926Z,5.09
2023-02-14T18:28:33.990Z,5.15
2023-02-14T18:31:11.261Z,5.32
2023-02-14T18:33:39.093Z,5.12
2023-02-14T18:36:10.138Z,5.27
2023-02-14T18:38:36.933Z,5.58
2023-02-14T18:41:05.098Z,5.56
2023-02-14T18:43:31.843Z,5.41
2023-02-14T18:46:06.104Z,5.59
2023-02-14T18:48:33.779Z,5.36
2023-02-14T18:51:15.617Z,5.18
2023-02-14T18:53:43.579Z,5.58
2023-02-14T18:56:13.111Z,5.82
2023-02-14T18:58:41.224Z,5.90
2023-02-14T19:01:08.967Z,5.84
2023-02-14T19:03:36.409Z,5.81
2023-02-14T19:06:03.243Z,5.77
2023-02-14T19:08:32.305Z,5.68
2023-02-14T19:10:59.641Z,5.55
2023-02-14T19:13:29.276Z,5.48
2023-02-14T19:15:56.471Z,5.25
2023-02-14T19:18:25.636Z,5.05
2023-02-14T19:20:52.977Z,5.03
2023-02-14T19:23:19.762Z,4.82
2023-02-14T19:25:46.612Z,4.85
2023-02-14T19:28:13.618Z,4.72
2023-02-14T19:30:40.433Z,4.55
2023-02-14T19:33:07.156Z,4.46
2023-02-14T19:35:33.874Z,4.31
2023-02-14T19:38:03.504Z,4.30
2023-02-14T19:40:30.850Z,4.38
2023-02-14T19:42:57.544Z,4.53
2023-02-14T19:45:24.368Z,4.48
2023-02-14T19:47:51.056Z,4.38
2023-02-14T19:50:20.391Z,4.58
2023-02-14T19:52:48.637Z,4.31
2023-02-14T19:55:21.938Z,4.55
2023-02-14T19:57:48.949Z,4.38
2023-02-14T20:00:16.613Z,4.23
2023-02-14T20:02:48.153Z,4.26
2023-02-14T20:05:16.136Z,4.10
2023-02-14T20:07:43.469Z,4.14
2023-02-14T20:10:11.930Z,4.18
2023-02-14T20:12:38.979Z,4.14
2023-02-14T20:15:06.231Z,4.14
2023-02-14T20:17:33.045Z,4.25
2023-02-14T20:19:59.887Z,4.38
2023-02-14T20:22:26.672Z,4.29
2023-02-14T20:24:53.623Z,4.18
2023-02-14T20:27:20.612Z,4.20
2023-02-14T20:29:47.630Z,4.23
2023-02-14T20:32:16.015Z,4.03
2023-02-14T20:34:43.033Z,4.06
2023-02-14T20:37:11.158Z,4.02
2023-02-14T20:39:38.638Z,4.44
2023-02-14T20:42:05.589Z,4.37
2023-02-14T20:44:32.450Z,4.25
2023-02-14T20:46:59.167Z,4.16
2023-02-14T20:49:27.569Z,4.02
2023-02-14T20:51:54.608Z,3.99
2023-02-14T20:54:24.880Z,4.23
2023-02-14T20:56:51.920Z,4.29
2023-02-14T20:59:28.923Z,3.92
2023-02-14T21:01:57.258Z,3.82
2023-02-14T21:04:28.089Z,3.76
2023-02-14T21:06:55.681Z,3.67
2023-02-14T21:09:22.369Z,3.67
2023-02-14T21:11:50.289Z,3.69
2023-02-14T21:14:17.716Z,3.75
2023-02-14T21:16:44.611Z,3.79
2023-02-14T21:19:11.268Z,3.60
2023-02-14T21:21:39.096Z,3.60
2023-02-14T21:24:15.057Z,3.51
2023-02-14T21:26:43.182Z,3.51
2023-02-14T21:29:10.399Z,3.67
2023-02-14T21:31:37.797Z,3.71
2023-02-14T21:34:04.874Z,4.13
2023-02-14T21:36:33.226Z,4.56
2023-02-14T21:39:01.843Z,4.45
2023-02-14T21:41:29.893Z,4.30
2023-02-14T21:43:58.454Z,4.36
2023-02-14T21:46:31.144Z,4.46
2023-02-14T21:49:17.025Z,4.47
2023-02-14T21:51:44.103Z,4.45
2023-02-14T21:54:11.812Z,4.26
2023-02-14T21:56:39.181Z,4.37
2023-02-14T21:59:05.896Z,4.17
2023-02-14T22:01:35.110Z,4.19
2023-02-14T22:04:02.836Z,3.99
2023-02-14T22:06:29.621Z,3.81
2023-02-14T22:08:58.246Z,3.73
2023-02-14T22:11:27.255Z,4.01
2023-02-14T22:13:54.168Z,3.88
2023-02-14T22:16:22.878Z,3.98
2023-02-14T22:18:49.895Z,4.19
2023-02-14T22:21:22.432Z,3.84
2023-02-14T22:23:59.810Z,3.53
2023-02-14T22:26:31.095Z,3.32
2023-02-14T22:29:00.302Z,3.19
2023-02-14T22:31:30.093Z,3.27
2023-02-14T22:33:57.192Z,3.36
2023-02-14T22:36:27.722Z,3.32
2023-02-14T22:38:54.960Z,3.25
2023-02-14T22:41:23.971Z,3.19
2023-02-14T22:43:51.896Z,3.17
2023-02-14T22:46:22.730Z,3.17
2023-02-14T22:48:50.733Z,3.03
2023-02-14T22:51:25.387Z,2.89
2023-02-14T22:53:54.498Z,2.86
2023-02-14T22:56:26.551Z,2.83
2023-02-14T22:58:58.735Z,2.71
2023-02-14T23:01:25.896Z,2.53
2023-02-14T23:03:58.003Z,2.59
2023-02-14T23:06:26.648Z,2.57
2023-02-14T23:08:54.638Z,2.61
2023-02-14T23:11:23.994Z,2.59
2023-02-14T23:14:09.215Z,2.61
2023-02-14T23:16:54.579Z,2.54
2023-02-14T23:19:43.010Z,2.45
2023-02-14T23:22:15.086Z,2.39
2023-02-14T23:24:42.416Z,2.34
2023-02-14T23:27:09.443Z,2.52
2023-02-14T23:29:37.023Z,2.47
2023-02-14T23:32:04.985Z,2.50
2023-02-14T23:34:33.779Z,2.61
2023-02-14T23:37:00.765Z,2.46
2023-02-14T23:39:27.553Z,2.44
2023-02-14T23:41:54.324Z,2.52
2023-02-14T23:44:22.012Z,2.61
2023-02-14T23:46:50.561Z,2.75
2023-02-14T23:49:17.818Z,2.77
2023-02-14T23:51:45.899Z,2.75
2023-02-14T23:54:13.319Z,2.67
2023-02-14T23:56:40.528Z,2.42
2023-02-14T23:59:07.982Z,2.37
